sensor_id;sensor_type;location;lat;lon;timestamp;temperature;humidity
7700;DHT22;3892;47.794;19.126;2023-05-07T00:01:36;22.10;49.50
7700;DHT22;3892;47.794;19.126;2023-05-07T00:04:04;22.10;49.50
7700;DHT22;3892;47.794;19.126;2023-05-07T00:06:34;22.20;49.70
7700;DHT22;3892;47.794;19.126;2023-05-07T00:09:03;22.10;49.50
7700;DHT22;3892;47.794;19.126;2023-05-07T00:11:32;22.20;49.60
7700;DHT22;3892;47.794;19.126;2023-05-07T00:14:00;22.20;49.50
7700;DHT22;3892;47.794;19.126;2023-05-07T00:16:29;22.20;49.50
7700;DHT22;3892;47.794;19.126;2023-05-07T00:18:57;22.20;49.50
7700;DHT22;3892;47.794;19.126;2023-05-07T00:21:25;22.10;49.60
7700;DHT22;3892;47.794;19.126;2023-05-07T00:23:54;22.10;49.70
7700;DHT22;3892;47.794;19.126;2023-05-07T00:26:23;22.10;49.60
7700;DHT22;3892;47.794;19.126;2023-05-07T00:28:51;22.10;49.50
7700;DHT22;3892;47.794;19.126;2023-05-07T00:31:19;22.20;49.70
7700;DHT22;3892;47.794;19.126;2023-05-07T00:33:47;22.20;49.50
7700;DHT22;3892;47.794;19.126;2023-05-07T00:36:15;22.30;50.10
7700;DHT22;3892;47.794;19.126;2023-05-07T00:38:43;22.30;49.40
7700;DHT22;3892;47.794;19.126;2023-05-07T00:41:11;22.30;49.30
7700;DHT22;3892;47.794;19.126;2023-05-07T00:43:41;22.40;49.30
7700;DHT22;3892;47.794;19.126;2023-05-07T00:46:09;22.40;49.10
7700;DHT22;3892;47.794;19.126;2023-05-07T00:48:38;22.40;49.00
7700;DHT22;3892;47.794;19.126;2023-05-07T00:51:06;22.40;49.00
7700;DHT22;3892;47.794;19.126;2023-05-07T00:53:34;22.40;49.00
7700;DHT22;3892;47.794;19.126;2023-05-07T00:56:03;22.40;49.00
7700;DHT22;3892;47.794;19.126;2023-05-07T00:58:33;22.40;48.90
7700;DHT22;3892;47.794;19.126;2023-05-07T01:01:02;22.40;48.80
7700;DHT22;3892;47.794;19.126;2023-05-07T01:03:30;22.40;48.60
7700;DHT22;3892;47.794;19.126;2023-05-07T01:05:59;22.50;48.50
7700;DHT22;3892;47.794;19.126;2023-05-07T01:08:28;22.40;48.30
7700;DHT22;3892;47.794;19.126;2023-05-07T01:10:57;22.40;48.20
7700;DHT22;3892;47.794;19.126;2023-05-07T01:13:25;22.40;48.20
7700;DHT22;3892;47.794;19.126;2023-05-07T01:15:55;22.40;48.40
7700;DHT22;3892;47.794;19.126;2023-05-07T01:18:24;22.40;48.40
7700;DHT22;3892;47.794;19.126;2023-05-07T01:20:54;22.40;48.40
7700;DHT22;3892;47.794;19.126;2023-05-07T01:23:25;22.30;48.30
7700;DHT22;3892;47.794;19.126;2023-05-07T01:25:55;22.30;48.60
7700;DHT22;3892;47.794;19.126;2023-05-07T01:28:23;22.30;48.70
7700;DHT22;3892;47.794;19.126;2023-05-07T01:30:54;22.20;49.30
7700;DHT22;3892;47.794;19.126;2023-05-07T01:33:23;22.10;48.70
7700;DHT22;3892;47.794;19.126;2023-05-07T01:35:53;22.10;48.80
7700;DHT22;3892;47.794;19.126;2023-05-07T01:38:24;22.10;48.90
7700;DHT22;3892;47.794;19.126;2023-05-07T01:40:52;22.10;48.90
7700;DHT22;3892;47.794;19.126;2023-05-07T01:43:21;22.20;49.10
7700;DHT22;3892;47.794;19.126;2023-05-07T01:45:49;22.20;49.10
7700;DHT22;3892;47.794;19.126;2023-05-07T01:48:18;22.10;49.10
7700;DHT22;3892;47.794;19.126;2023-05-07T01:50:46;22.10;49.20
7700;DHT22;3892;47.794;19.126;2023-05-07T01:53:15;22.20;49.30
7700;DHT22;3892;47.794;19.126;2023-05-07T01:55:44;22.10;49.10
7700;DHT22;3892;47.794;19.126;2023-05-07T01:58:12;22.20;49.20
7700;DHT22;3892;47.794;19.126;2023-05-07T02:00:40;22.20;49.10
7700;DHT22;3892;47.794;19.126;2023-05-07T02:03:08;22.20;49.00
7700;DHT22;3892;47.794;19.126;2023-05-07T02:05:37;22.20;48.90
7700;DHT22;3892;47.794;19.126;2023-05-07T02:08:05;22.20;48.80
7700;DHT22;3892;47.794;19.126;2023-05-07T02:10:33;22.20;48.80
7700;DHT22;3892;47.794;19.126;2023-05-07T02:13:02;22.20;48.80
7700;DHT22;3892;47.794;19.126;2023-05-07T02:15:30;22.20;48.70
7700;DHT22;3892;47.794;19.126;2023-05-07T02:17:59;22.20;48.70
7700;DHT22;3892;47.794;19.126;2023-05-07T02:20:27;22.20;48.70
7700;DHT22;3892;47.794;19.126;2023-05-07T02:22:55;22.20;48.60
7700;DHT22;3892;47.794;19.126;2023-05-07T02:25:24;22.10;48.60
7700;DHT22;3892;47.794;19.126;2023-05-07T02:27:52;22.10;48.40
7700;DHT22;3892;47.794;19.126;2023-05-07T02:30:21;22.10;48.20
7700;DHT22;3892;47.794;19.126;2023-05-07T02:32:50;22.10;48.20
7700;DHT22;3892;47.794;19.126;2023-05-07T02:35:18;22.10;48.30
7700;DHT22;3892;47.794;19.126;2023-05-07T02:37:46;22.10;48.30
7700;DHT22;3892;47.794;19.126;2023-05-07T02:40:14;22.10;48.40
7700;DHT22;3892;47.794;19.126;2023-05-07T02:42:43;22.10;48.40
7700;DHT22;3892;47.794;19.126;2023-05-07T02:45:11;22.10;48.30
7700;DHT22;3892;47.794;19.126;2023-05-07T02:47:40;22.10;48.30
7700;DHT22;3892;47.794;19.126;2023-05-07T02:50:08;22.10;48.40
7700;DHT22;3892;47.794;19.126;2023-05-07T02:52:37;22.10;48.40
7700;DHT22;3892;47.794;19.126;2023-05-07T02:55:06;22.10;48.40
7700;DHT22;3892;47.794;19.126;2023-05-07T02:57:34;22.10;48.40
7700;DHT22;3892;47.794;19.126;2023-05-07T03:00:10;22.00;48.50
7700;DHT22;3892;47.794;19.126;2023-05-07T03:02:40;22.00;48.50
7700;DHT22;3892;47.794;19.126;2023-05-07T03:05:08;22.10;48.60
7700;DHT22;3892;47.794;19.126;2023-05-07T03:07:36;22.00;48.60
7700;DHT22;3892;47.794;19.126;2023-05-07T03:10:05;22.00;48.50
7700;DHT22;3892;47.794;19.126;2023-05-07T03:12:34;22.00;48.50
7700;DHT22;3892;47.794;19.126;2023-05-07T03:15:02;22.00;48.50
7700;DHT22;3892;47.794;19.126;2023-05-07T03:17:30;22.00;48.60
7700;DHT22;3892;47.794;19.126;2023-05-07T03:20:00;22.00;48.70
7700;DHT22;3892;47.794;19.126;2023-05-07T03:22:28;22.00;48.80
7700;DHT22;3892;47.794;19.126;2023-05-07T03:24:56;22.00;48.80
7700;DHT22;3892;47.794;19.126;2023-05-07T03:27:24;22.00;48.70
7700;DHT22;3892;47.794;19.126;2023-05-07T03:29:52;22.00;48.60
7700;DHT22;3892;47.794;19.126;2023-05-07T03:32:20;21.90;48.60
7700;DHT22;3892;47.794;19.126;2023-05-07T03:34:48;21.90;48.70
7700;DHT22;3892;47.794;19.126;2023-05-07T03:37:18;21.90;48.70
7700;DHT22;3892;47.794;19.126;2023-05-07T03:39:46;21.90;48.70
7700;DHT22;3892;47.794;19.126;2023-05-07T03:42:15;21.90;48.80
7700;DHT22;3892;47.794;19.126;2023-05-07T03:44:43;21.90;48.80
7700;DHT22;3892;47.794;19.126;2023-05-07T03:47:11;21.90;48.90
7700;DHT22;3892;47.794;19.126;2023-05-07T03:49:40;21.90;48.90
7700;DHT22;3892;47.794;19.126;2023-05-07T03:52:08;21.90;49.00
7700;DHT22;3892;47.794;19.126;2023-05-07T03:54:37;22.00;49.10
7700;DHT22;3892;47.794;19.126;2023-05-07T03:57:05;21.90;49.00
7700;DHT22;3892;47.794;19.126;2023-05-07T03:59:33;22.00;49.00
7700;DHT22;3892;47.794;19.126;2023-05-07T04:02:01;22.00;48.90
7700;DHT22;3892;47.794;19.126;2023-05-07T04:04:31;22.00;48.80
7700;DHT22;3892;47.794;19.126;2023-05-07T04:06:59;22.00;48.80
7700;DHT22;3892;47.794;19.126;2023-05-07T04:09:28;22.00;48.60
7700;DHT22;3892;47.794;19.126;2023-05-07T04:11:57;21.90;48.40
7700;DHT22;3892;47.794;19.126;2023-05-07T04:14:25;21.90;48.20
7700;DHT22;3892;47.794;19.126;2023-05-07T04:16:53;21.90;48.20
7700;DHT22;3892;47.794;19.126;2023-05-07T04:19:21;21.90;48.30
7700;DHT22;3892;47.794;19.126;2023-05-07T04:21:49;21.90;48.30
7700;DHT22;3892;47.794;19.126;2023-05-07T04:24:18;21.90;48.30
7700;DHT22;3892;47.794;19.126;2023-05-07T04:26:46;21.90;48.30
7700;DHT22;3892;47.794;19.126;2023-05-07T04:29:15;21.90;48.40
7700;DHT22;3892;47.794;19.126;2023-05-07T04:31:43;21.90;48.50
7700;DHT22;3892;47.794;19.126;2023-05-07T04:34:11;21.90;48.40
7700;DHT22;3892;47.794;19.126;2023-05-07T04:36:41;21.90;48.30
7700;DHT22;3892;47.794;19.126;2023-05-07T04:39:09;21.90;48.40
7700;DHT22;3892;47.794;19.126;2023-05-07T04:41:38;21.90;48.40
7700;DHT22;3892;47.794;19.126;2023-05-07T04:44:06;22.00;48.40
7700;DHT22;3892;47.794;19.126;2023-05-07T04:46:37;22.00;48.50
7700;DHT22;3892;47.794;19.126;2023-05-07T04:49:05;22.00;48.50
7700;DHT22;3892;47.794;19.126;2023-05-07T04:51:33;22.00;48.50
7700;DHT22;3892;47.794;19.126;2023-05-07T04:54:01;22.00;48.50
7700;DHT22;3892;47.794;19.126;2023-05-07T04:56:29;22.00;48.50
7700;DHT22;3892;47.794;19.126;2023-05-07T04:58:58;22.00;48.50
7700;DHT22;3892;47.794;19.126;2023-05-07T05:01:26;22.00;48.50
7700;DHT22;3892;47.794;19.126;2023-05-07T05:03:55;22.00;48.60
7700;DHT22;3892;47.794;19.126;2023-05-07T05:06:23;22.00;48.70
7700;DHT22;3892;47.794;19.126;2023-05-07T05:08:51;22.10;48.90
7700;DHT22;3892;47.794;19.126;2023-05-07T05:11:19;22.10;48.80
7700;DHT22;3892;47.794;19.126;2023-05-07T05:13:47;22.10;48.80
7700;DHT22;3892;47.794;19.126;2023-05-07T05:16:16;22.10;48.80
7700;DHT22;3892;47.794;19.126;2023-05-07T05:18:44;22.10;48.80
7700;DHT22;3892;47.794;19.126;2023-05-07T05:21:13;22.10;48.50
7700;DHT22;3892;47.794;19.126;2023-05-07T05:23:41;22.20;48.40
7700;DHT22;3892;47.794;19.126;2023-05-07T05:26:09;22.20;48.30
7700;DHT22;3892;47.794;19.126;2023-05-07T05:28:38;22.20;48.20
7700;DHT22;3892;47.794;19.126;2023-05-07T05:31:06;22.20;48.20
7700;DHT22;3892;47.794;19.126;2023-05-07T05:33:34;22.30;48.20
7700;DHT22;3892;47.794;19.126;2023-05-07T05:36:02;22.20;48.10
7700;DHT22;3892;47.794;19.126;2023-05-07T05:38:31;22.30;48.10
7700;DHT22;3892;47.794;19.126;2023-05-07T05:41:00;22.30;48.30
7700;DHT22;3892;47.794;19.126;2023-05-07T05:43:28;22.30;48.20
7700;DHT22;3892;47.794;19.126;2023-05-07T05:45:56;22.30;48.00
7700;DHT22;3892;47.794;19.126;2023-05-07T05:48:25;22.40;48.20
7700;DHT22;3892;47.794;19.126;2023-05-07T05:50:53;22.40;48.30
7700;DHT22;3892;47.794;19.126;2023-05-07T05:53:21;22.40;48.30
7700;DHT22;3892;47.794;19.126;2023-05-07T05:55:51;22.40;48.40
7700;DHT22;3892;47.794;19.126;2023-05-07T05:58:19;22.50;48.40
7700;DHT22;3892;47.794;19.126;2023-05-07T06:00:49;22.50;48.30
7700;DHT22;3892;47.794;19.126;2023-05-07T06:03:19;22.50;48.30
7700;DHT22;3892;47.794;19.126;2023-05-07T06:05:47;22.60;48.20
7700;DHT22;3892;47.794;19.126;2023-05-07T06:08:15;22.60;48.00
7700;DHT22;3892;47.794;19.126;2023-05-07T06:10:44;22.70;47.70
7700;DHT22;3892;47.794;19.126;2023-05-07T06:13:13;22.70;47.70
7700;DHT22;3892;47.794;19.126;2023-05-07T06:15:41;22.70;47.70
7700;DHT22;3892;47.794;19.126;2023-05-07T06:18:09;22.70;47.70
7700;DHT22;3892;47.794;19.126;2023-05-07T06:20:37;22.80;47.80
7700;DHT22;3892;47.794;19.126;2023-05-07T06:23:05;22.80;48.30
7700;DHT22;3892;47.794;19.126;2023-05-07T06:25:33;22.80;47.80
7700;DHT22;3892;47.794;19.126;2023-05-07T06:28:01;22.80;47.90
7700;DHT22;3892;47.794;19.126;2023-05-07T06:30:32;22.80;48.10
7700;DHT22;3892;47.794;19.126;2023-05-07T06:33:00;22.90;48.30
7700;DHT22;3892;47.794;19.126;2023-05-07T06:35:28;22.90;48.30
7700;DHT22;3892;47.794;19.126;2023-05-07T06:37:56;23.00;48.30
7700;DHT22;3892;47.794;19.126;2023-05-07T06:40:24;23.10;48.40
7700;DHT22;3892;47.794;19.126;2023-05-07T06:42:52;23.20;48.40
7700;DHT22;3892;47.794;19.126;2023-05-07T06:45:21;23.20;48.10
7700;DHT22;3892;47.794;19.126;2023-05-07T06:47:50;23.10;47.90
7700;DHT22;3892;47.794;19.126;2023-05-07T06:50:18;23.10;48.00
7700;DHT22;3892;47.794;19.126;2023-05-07T06:52:46;23.10;47.80
7700;DHT22;3892;47.794;19.126;2023-05-07T06:55:15;23.20;47.90
7700;DHT22;3892;47.794;19.126;2023-05-07T06:57:43;23.20;48.00
7700;DHT22;3892;47.794;19.126;2023-05-07T07:00:12;23.10;48.00
7700;DHT22;3892;47.794;19.126;2023-05-07T07:02:41;23.10;47.80
7700;DHT22;3892;47.794;19.126;2023-05-07T07:05:10;23.10;48.10
7700;DHT22;3892;47.794;19.126;2023-05-07T07:07:38;23.10;47.90
7700;DHT22;3892;47.794;19.126;2023-05-07T07:10:07;23.10;47.70
7700;DHT22;3892;47.794;19.126;2023-05-07T07:12:35;23.20;47.40
7700;DHT22;3892;47.794;19.126;2023-05-07T07:15:04;23.30;47.30
7700;DHT22;3892;47.794;19.126;2023-05-07T07:17:32;23.40;47.50
7700;DHT22;3892;47.794;19.126;2023-05-07T07:20:01;23.40;47.60
7700;DHT22;3892;47.794;19.126;2023-05-07T07:22:30;23.50;47.20
7700;DHT22;3892;47.794;19.126;2023-05-07T07:24:59;23.50;47.10
7700;DHT22;3892;47.794;19.126;2023-05-07T07:27:27;23.60;47.30
7700;DHT22;3892;47.794;19.126;2023-05-07T07:29:55;23.70;47.20
7700;DHT22;3892;47.794;19.126;2023-05-07T07:32:23;23.70;46.60
7700;DHT22;3892;47.794;19.126;2023-05-07T07:34:51;23.80;46.90
7700;DHT22;3892;47.794;19.126;2023-05-07T07:37:19;23.90;46.60
7700;DHT22;3892;47.794;19.126;2023-05-07T07:39:49;24.00;46.50
7700;DHT22;3892;47.794;19.126;2023-05-07T07:42:17;24.10;46.20
7700;DHT22;3892;47.794;19.126;2023-05-07T07:44:45;24.10;45.20
7700;DHT22;3892;47.794;19.126;2023-05-07T07:47:13;24.10;45.10
7700;DHT22;3892;47.794;19.126;2023-05-07T07:49:41;24.20;45.10
7700;DHT22;3892;47.794;19.126;2023-05-07T07:52:09;24.20;44.80
7700;DHT22;3892;47.794;19.126;2023-05-07T07:54:37;24.20;44.30
7700;DHT22;3892;47.794;19.126;2023-05-07T07:57:06;24.20;44.10
7700;DHT22;3892;47.794;19.126;2023-05-07T07:59:34;24.20;44.00
7700;DHT22;3892;47.794;19.126;2023-05-07T08:02:02;24.30;44.40
7700;DHT22;3892;47.794;19.126;2023-05-07T08:04:31;24.40;44.60
7700;DHT22;3892;47.794;19.126;2023-05-07T08:06:59;24.40;44.20
7700;DHT22;3892;47.794;19.126;2023-05-07T08:09:28;24.40;44.10
7700;DHT22;3892;47.794;19.126;2023-05-07T08:11:56;24.50;43.90
7700;DHT22;3892;47.794;19.126;2023-05-07T08:14:25;24.40;43.30
7700;DHT22;3892;47.794;19.126;2023-05-07T08:16:54;24.50;43.50
7700;DHT22;3892;47.794;19.126;2023-05-07T08:19:23;24.50;43.00
7700;DHT22;3892;47.794;19.126;2023-05-07T08:21:51;24.60;42.70
7700;DHT22;3892;47.794;19.126;2023-05-07T08:24:19;24.70;43.50
7700;DHT22;3892;47.794;19.126;2023-05-07T08:26:47;24.70;43.50
7700;DHT22;3892;47.794;19.126;2023-05-07T08:29:16;24.80;43.00
7700;DHT22;3892;47.794;19.126;2023-05-07T08:31:45;24.90;42.60
7700;DHT22;3892;47.794;19.126;2023-05-07T08:34:13;25.00;42.40
7700;DHT22;3892;47.794;19.126;2023-05-07T08:36:41;25.00;42.60
7700;DHT22;3892;47.794;19.126;2023-05-07T08:39:09;25.00;41.20
7700;DHT22;3892;47.794;19.126;2023-05-07T08:41:37;24.90;41.60
7700;DHT22;3892;47.794;19.126;2023-05-07T08:44:11;24.90;42.20
7700;DHT22;3892;47.794;19.126;2023-05-07T08:46:41;25.00;41.40
7700;DHT22;3892;47.794;19.126;2023-05-07T08:49:11;25.00;40.70
7700;DHT22;3892;47.794;19.126;2023-05-07T08:51:40;25.00;40.50
7700;DHT22;3892;47.794;19.126;2023-05-07T08:54:10;25.00;40.40
7700;DHT22;3892;47.794;19.126;2023-05-07T08:56:39;25.00;40.60
7700;DHT22;3892;47.794;19.126;2023-05-07T08:59:07;25.20;40.20
7700;DHT22;3892;47.794;19.126;2023-05-07T09:01:35;25.30;40.70
7700;DHT22;3892;47.794;19.126;2023-05-07T09:04:05;25.30;40.80
7700;DHT22;3892;47.794;19.126;2023-05-07T09:06:35;25.40;40.10
7700;DHT22;3892;47.794;19.126;2023-05-07T09:09:04;25.60;40.10
7700;DHT22;3892;47.794;19.126;2023-05-07T09:11:33;25.60;40.30
7700;DHT22;3892;47.794;19.126;2023-05-07T09:14:01;25.70;40.40
7700;DHT22;3892;47.794;19.126;2023-05-07T09:16:30;25.80;40.60
7700;DHT22;3892;47.794;19.126;2023-05-07T09:18:59;25.80;40.20
7700;DHT22;3892;47.794;19.126;2023-05-07T09:21:27;25.80;40.50
7700;DHT22;3892;47.794;19.126;2023-05-07T09:24:00;25.90;40.30
7700;DHT22;3892;47.794;19.126;2023-05-07T09:26:30;25.90;40.40
7700;DHT22;3892;47.794;19.126;2023-05-07T09:28:59;26.10;40.60
7700;DHT22;3892;47.794;19.126;2023-05-07T09:31:27;26.20;40.20
7700;DHT22;3892;47.794;19.126;2023-05-07T09:33:55;26.20;39.90
7700;DHT22;3892;47.794;19.126;2023-05-07T09:36:23;26.30;39.80
7700;DHT22;3892;47.794;19.126;2023-05-07T09:38:51;26.30;39.70
7700;DHT22;3892;47.794;19.126;2023-05-07T09:41:21;26.40;40.00
7700;DHT22;3892;47.794;19.126;2023-05-07T09:43:53;26.50;39.60
7700;DHT22;3892;47.794;19.126;2023-05-07T09:46:27;26.60;39.30
7700;DHT22;3892;47.794;19.126;2023-05-07T09:48:57;26.70;39.70
7700;DHT22;3892;47.794;19.126;2023-05-07T09:51:29;26.80;39.60
7700;DHT22;3892;47.794;19.126;2023-05-07T09:53:58;26.90;39.10
7700;DHT22;3892;47.794;19.126;2023-05-07T09:56:29;26.90;39.60
7700;DHT22;3892;47.794;19.126;2023-05-07T09:59:00;27.00;39.10
7700;DHT22;3892;47.794;19.126;2023-05-07T10:01:29;27.10;39.10
7700;DHT22;3892;47.794;19.126;2023-05-07T10:03:59;27.10;39.30
7700;DHT22;3892;47.794;19.126;2023-05-07T10:06:27;27.10;39.40
7700;DHT22;3892;47.794;19.126;2023-05-07T10:08:57;27.20;40.30
7700;DHT22;3892;47.794;19.126;2023-05-07T10:11:26;27.20;40.70
7700;DHT22;3892;47.794;19.126;2023-05-07T10:13:57;27.30;40.90
7700;DHT22;3892;47.794;19.126;2023-05-07T10:16:25;27.30;40.20
7700;DHT22;3892;47.794;19.126;2023-05-07T10:18:55;27.30;39.20
7700;DHT22;3892;47.794;19.126;2023-05-07T10:21:23;27.30;39.20
7700;DHT22;3892;47.794;19.126;2023-05-07T10:23:58;27.20;39.50
7700;DHT22;3892;47.794;19.126;2023-05-07T10:26:27;27.10;39.90
7700;DHT22;3892;47.794;19.126;2023-05-07T10:29:01;27.00;39.30
7700;DHT22;3892;47.794;19.126;2023-05-07T10:31:51;27.00;38.70
7700;DHT22;3892;47.794;19.126;2023-05-07T10:34:23;26.90;40.50
7700;DHT22;3892;47.794;19.126;2023-05-07T10:36:52;26.90;40.20
7700;DHT22;3892;47.794;19.126;2023-05-07T10:39:21;26.90;41.30
7700;DHT22;3892;47.794;19.126;2023-05-07T10:41:49;27.00;41.40
7700;DHT22;3892;47.794;19.126;2023-05-07T10:44:27;27.10;42.00
7700;DHT22;3892;47.794;19.126;2023-05-07T10:47:04;26.90;39.10
7700;DHT22;3892;47.794;19.126;2023-05-07T10:49:36;27.00;39.90
7700;DHT22;3892;47.794;19.126;2023-05-07T10:52:15;27.10;40.60
7700;DHT22;3892;47.794;19.126;2023-05-07T10:54:44;27.20;41.40
7700;DHT22;3892;47.794;19.126;2023-05-07T10:57:34;27.30;40.50
7700;DHT22;3892;47.794;19.126;2023-05-07T11:00:41;27.30;40.60
7700;DHT22;3892;47.794;19.126;2023-05-07T11:03:10;27.30;40.10
7700;DHT22;3892;47.794;19.126;2023-05-07T11:05:38;27.20;39.60
7700;DHT22;3892;47.794;19.126;2023-05-07T11:08:07;27.10;39.60
7700;DHT22;3892;47.794;19.126;2023-05-07T11:10:54;27.10;40.50
7700;DHT22;3892;47.794;19.126;2023-05-07T11:13:43;27.10;40.70
7700;DHT22;3892;47.794;19.126;2023-05-07T11:16:20;27.10;39.80
7700;DHT22;3892;47.794;19.126;2023-05-07T11:18:50;27.10;40.50
7700;DHT22;3892;47.794;19.126;2023-05-07T11:21:35;27.20;41.30
7700;DHT22;3892;47.794;19.126;2023-05-07T11:24:04;27.20;40.90
7700;DHT22;3892;47.794;19.126;2023-05-07T11:26:42;27.30;41.50
7700;DHT22;3892;47.794;19.126;2023-05-07T11:29:12;27.50;41.60
7700;DHT22;3892;47.794;19.126;2023-05-07T11:31:42;27.70;42.20
7700;DHT22;3892;47.794;19.126;2023-05-07T11:34:11;27.90;40.40
7700;DHT22;3892;47.794;19.126;2023-05-07T11:36:43;28.00;38.90
7700;DHT22;3892;47.794;19.126;2023-05-07T11:39:24;28.20;37.90
7700;DHT22;3892;47.794;19.126;2023-05-07T11:41:52;28.20;37.30
7700;DHT22;3892;47.794;19.126;2023-05-07T11:44:20;28.30;36.90
7700;DHT22;3892;47.794;19.126;2023-05-07T11:46:50;28.40;37.30
7700;DHT22;3892;47.794;19.126;2023-05-07T11:49:18;28.40;37.10
7700;DHT22;3892;47.794;19.126;2023-05-07T11:51:46;28.50;36.70
7700;DHT22;3892;47.794;19.126;2023-05-07T11:54:17;28.50;36.60
7700;DHT22;3892;47.794;19.126;2023-05-07T11:56:45;28.60;36.70
7700;DHT22;3892;47.794;19.126;2023-05-07T11:59:17;28.70;37.70
7700;DHT22;3892;47.794;19.126;2023-05-07T12:01:46;28.60;36.90
7700;DHT22;3892;47.794;19.126;2023-05-07T12:04:20;28.70;37.20
7700;DHT22;3892;47.794;19.126;2023-05-07T12:06:48;28.80;37.20
7700;DHT22;3892;47.794;19.126;2023-05-07T12:09:17;28.70;35.70
7700;DHT22;3892;47.794;19.126;2023-05-07T12:11:46;28.80;36.40
7700;DHT22;3892;47.794;19.126;2023-05-07T12:14:14;28.90;35.80
7700;DHT22;3892;47.794;19.126;2023-05-07T12:16:43;28.90;35.80
7700;DHT22;3892;47.794;19.126;2023-05-07T12:19:13;29.00;35.80
7700;DHT22;3892;47.794;19.126;2023-05-07T12:21:42;29.00;36.40
7700;DHT22;3892;47.794;19.126;2023-05-07T12:24:11;29.10;36.40
7700;DHT22;3892;47.794;19.126;2023-05-07T12:26:39;29.20;35.70
7700;DHT22;3892;47.794;19.126;2023-05-07T12:29:07;29.20;35.40
7700;DHT22;3892;47.794;19.126;2023-05-07T12:31:35;29.30;35.00
7700;DHT22;3892;47.794;19.126;2023-05-07T12:34:03;29.30;35.30
7700;DHT22;3892;47.794;19.126;2023-05-07T12:36:36;29.30;34.30
7700;DHT22;3892;47.794;19.126;2023-05-07T12:39:07;29.40;34.50
7700;DHT22;3892;47.794;19.126;2023-05-07T12:41:53;29.40;34.30
7700;DHT22;3892;47.794;19.126;2023-05-07T12:44:22;29.50;35.30
7700;DHT22;3892;47.794;19.126;2023-05-07T12:46:50;29.50;34.90
7700;DHT22;3892;47.794;19.126;2023-05-07T12:49:19;29.60;34.30
7700;DHT22;3892;47.794;19.126;2023-05-07T12:51:49;29.70;34.40
7700;DHT22;3892;47.794;19.126;2023-05-07T12:54:29;29.70;34.50
7700;DHT22;3892;47.794;19.126;2023-05-07T12:57:02;29.70;34.30
7700;DHT22;3892;47.794;19.126;2023-05-07T12:59:34;29.50;34.20
7700;DHT22;3892;47.794;19.126;2023-05-07T13:02:02;29.50;34.60
7700;DHT22;3892;47.794;19.126;2023-05-07T13:04:30;29.40;34.90
7700;DHT22;3892;47.794;19.126;2023-05-07T13:06:58;29.50;34.60
7700;DHT22;3892;47.794;19.126;2023-05-07T13:09:26;29.50;35.20
7700;DHT22;3892;47.794;19.126;2023-05-07T13:11:57;29.50;34.20
7700;DHT22;3892;47.794;19.126;2023-05-07T13:14:26;29.50;33.90
7700;DHT22;3892;47.794;19.126;2023-05-07T13:16:54;29.50;33.90
7700;DHT22;3892;47.794;19.126;2023-05-07T13:19:22;29.50;34.60
7700;DHT22;3892;47.794;19.126;2023-05-07T13:21:50;29.50;34.30
7700;DHT22;3892;47.794;19.126;2023-05-07T13:24:18;29.50;34.80
7700;DHT22;3892;47.794;19.126;2023-05-07T13:26:47;29.40;34.50
7700;DHT22;3892;47.794;19.126;2023-05-07T13:29:16;29.50;34.60
7700;DHT22;3892;47.794;19.126;2023-05-07T13:31:44;29.50;34.30
7700;DHT22;3892;47.794;19.126;2023-05-07T13:34:12;29.60;34.50
7700;DHT22;3892;47.794;19.126;2023-05-07T13:36:40;29.60;33.30
7700;DHT22;3892;47.794;19.126;2023-05-07T13:39:09;29.60;34.10
7700;DHT22;3892;47.794;19.126;2023-05-07T13:41:37;29.70;34.40
7700;DHT22;3892;47.794;19.126;2023-05-07T13:44:05;29.70;34.00
7700;DHT22;3892;47.794;19.126;2023-05-07T13:46:34;29.60;34.10
7700;DHT22;3892;47.794;19.126;2023-05-07T13:49:02;29.60;33.80
7700;DHT22;3892;47.794;19.126;2023-05-07T13:51:30;29.60;33.30
7700;DHT22;3892;47.794;19.126;2023-05-07T13:53:58;29.50;33.20
7700;DHT22;3892;47.794;19.126;2023-05-07T13:56:26;29.50;32.80
7700;DHT22;3892;47.794;19.126;2023-05-07T13:58:55;29.50;32.70
7700;DHT22;3892;47.794;19.126;2023-05-07T14:01:25;29.50;32.80
7700;DHT22;3892;47.794;19.126;2023-05-07T14:03:56;29.60;32.80
7700;DHT22;3892;47.794;19.126;2023-05-07T14:06:24;29.70;32.80
7700;DHT22;3892;47.794;19.126;2023-05-07T14:08:52;29.60;32.40
7700;DHT22;3892;47.794;19.126;2023-05-07T14:11:20;29.70;32.30
7700;DHT22;3892;47.794;19.126;2023-05-07T14:13:49;29.60;32.30
7700;DHT22;3892;47.794;19.126;2023-05-07T14:16:16;29.60;31.60
7700;DHT22;3892;47.794;19.126;2023-05-07T14:18:45;29.70;31.70
7700;DHT22;3892;47.794;19.126;2023-05-07T14:21:14;29.70;31.70
7700;DHT22;3892;47.794;19.126;2023-05-07T14:23:42;29.60;31.80
7700;DHT22;3892;47.794;19.126;2023-05-07T14:26:10;29.40;31.10
7700;DHT22;3892;47.794;19.126;2023-05-07T14:28:38;29.50;31.70
7700;DHT22;3892;47.794;19.126;2023-05-07T14:31:09;29.50;31.40
7700;DHT22;3892;47.794;19.126;2023-05-07T14:33:37;29.60;31.90
7700;DHT22;3892;47.794;19.126;2023-05-07T14:36:07;29.70;31.60
7700;DHT22;3892;47.794;19.126;2023-05-07T14:38:36;29.70;30.90
7700;DHT22;3892;47.794;19.126;2023-05-07T14:41:04;29.70;30.70
7700;DHT22;3892;47.794;19.126;2023-05-07T14:43:32;29.70;30.40
7700;DHT22;3892;47.794;19.126;2023-05-07T14:46:00;29.70;31.00
7700;DHT22;3892;47.794;19.126;2023-05-07T14:48:29;29.80;31.20
7700;DHT22;3892;47.794;19.126;2023-05-07T14:50:57;29.80;31.80
7700;DHT22;3892;47.794;19.126;2023-05-07T14:53:25;29.90;32.00
7700;DHT22;3892;47.794;19.126;2023-05-07T14:55:54;29.90;32.00
7700;DHT22;3892;47.794;19.126;2023-05-07T14:58:22;30.00;31.20
7700;DHT22;3892;47.794;19.126;2023-05-07T15:00:51;30.00;31.00
7700;DHT22;3892;47.794;19.126;2023-05-07T15:03:19;30.00;29.90
7700;DHT22;3892;47.794;19.126;2023-05-07T15:05:48;30.00;30.50
7700;DHT22;3892;47.794;19.126;2023-05-07T15:08:18;30.00;30.40
7700;DHT22;3892;47.794;19.126;2023-05-07T15:10:46;30.00;30.40
7700;DHT22;3892;47.794;19.126;2023-05-07T15:13:15;30.00;31.00
7700;DHT22;3892;47.794;19.126;2023-05-07T15:15:44;29.90;30.60
7700;DHT22;3892;47.794;19.126;2023-05-07T15:18:13;29.90;30.30
7700;DHT22;3892;47.794;19.126;2023-05-07T15:20:41;29.80;29.90
7700;DHT22;3892;47.794;19.126;2023-05-07T15:23:09;29.80;30.50
7700;DHT22;3892;47.794;19.126;2023-05-07T15:25:38;29.80;30.30
7700;DHT22;3892;47.794;19.126;2023-05-07T15:28:07;29.80;30.80
7700;DHT22;3892;47.794;19.126;2023-05-07T15:30:36;29.80;30.80
7700;DHT22;3892;47.794;19.126;2023-05-07T15:33:04;29.70;30.80
7700;DHT22;3892;47.794;19.126;2023-05-07T15:35:32;29.70;31.10
7700;DHT22;3892;47.794;19.126;2023-05-07T15:38:00;29.60;30.70
7700;DHT22;3892;47.794;19.126;2023-05-07T15:40:30;29.50;30.40
7700;DHT22;3892;47.794;19.126;2023-05-07T15:42:58;29.50;30.70
7700;DHT22;3892;47.794;19.126;2023-05-07T15:45:27;29.50;31.10
7700;DHT22;3892;47.794;19.126;2023-05-07T15:47:56;29.50;31.00
7700;DHT22;3892;47.794;19.126;2023-05-07T15:50:25;29.50;30.70
7700;DHT22;3892;47.794;19.126;2023-05-07T15:52:53;29.50;31.00
7700;DHT22;3892;47.794;19.126;2023-05-07T15:55:21;29.40;30.80
7700;DHT22;3892;47.794;19.126;2023-05-07T15:57:50;29.40;30.50